sensor_id;sensor_type;location;lat;lon;timestamp;P1;durP1;ratioP1;P2;durP2;ratioP2
14203;SDS011;7185;51.854;6.622;2022-09-17T00:01:43;7.35;;;2.15;;
14203;SDS011;7185;51.854;6.622;2022-09-17T00:14:40;10.90;;;1.90;;
14203;SDS011;7185;51.854;6.622;2022-09-17T00:24:58;9.95;;;2.42;;
14203;SDS011;7185;51.854;6.622;2022-09-17T00:27:29;9.40;;;2.00;;
14203;SDS011;7185;51.854;6.622;2022-09-17T00:35:17;12.18;;;2.15;;
14203;SDS011;7185;51.854;6.622;2022-09-17T00:40:22;14.93;;;2.40;;
14203;SDS011;7185;51.854;6.622;2022-09-17T00:42:53;8.32;;;2.00;;
14203;SDS011;7185;51.854;6.622;2022-09-17T00:58:46;10.27;;;2.35;;
14203;SDS011;7185;51.854;6.622;2022-09-17T01:01:26;12.25;;;2.35;;
14203;SDS011;7185;51.854;6.622;2022-09-17T01:04:16;8.27;;;1.92;;
14203;SDS011;7185;51.854;6.622;2022-09-17T01:06:54;8.63;;;2.05;;
14203;SDS011;7185;51.854;6.622;2022-09-17T01:09:46;6.55;;;1.90;;
14203;SDS011;7185;51.854;6.622;2022-09-17T01:13:05;15.05;;;2.83;;
14203;SDS011;7185;51.854;6.622;2022-09-17T01:16:26;9.20;;;1.95;;
14203;SDS011;7185;51.854;6.622;2022-09-17T01:19:27;7.65;;;2.15;;
14203;SDS011;7185;51.854;6.622;2022-09-17T01:22:45;10.88;;;1.98;;
14203;SDS011;7185;51.854;6.622;2022-09-17T01:25:52;9.32;;;1.95;;
14203;SDS011;7185;51.854;6.622;2022-09-17T01:29:04;10.73;;;2.47;;
14203;SDS011;7185;51.854;6.622;2022-09-17T01:32:11;12.70;;;2.67;;
14203;SDS011;7185;51.854;6.622;2022-09-17T01:35:51;12.75;;;2.78;;
14203;SDS011;7185;51.854;6.622;2022-09-17T01:38:29;9.68;;;1.85;;
14203;SDS011;7185;51.854;6.622;2022-09-17T01:41:15;13.07;;;1.90;;
14203;SDS011;7185;51.854;6.622;2022-09-17T01:43:55;13.27;;;1.90;;
14203;SDS011;7185;51.854;6.622;2022-09-17T01:46:46;11.80;;;2.28;;
14203;SDS011;7185;51.854;6.622;2022-09-17T01:49:45;11.82;;;2.60;;
14203;SDS011;7185;51.854;6.622;2022-09-17T01:52:23;12.93;;;1.80;;
14203;SDS011;7185;51.854;6.622;2022-09-17T01:55:14;14.30;;;1.88;;
14203;SDS011;7185;51.854;6.622;2022-09-17T01:57:52;8.88;;;1.77;;
14203;SDS011;7185;51.854;6.622;2022-09-17T02:00:36;12.10;;;1.80;;
14203;SDS011;7185;51.854;6.622;2022-09-17T02:03:33;11.00;;;1.85;;
14203;SDS011;7185;51.854;6.622;2022-09-17T02:11:54;11.10;;;2.70;;
14203;SDS011;7185;51.854;6.622;2022-09-17T02:14:46;7.75;;;1.90;;
14203;SDS011;7185;51.854;6.622;2022-09-17T02:17:25;10.18;;;1.92;;
14203;SDS011;7185;51.854;6.622;2022-09-17T02:20:05;13.13;;;2.05;;
14203;SDS011;7185;51.854;6.622;2022-09-17T02:22:43;8.85;;;1.70;;
14203;SDS011;7185;51.854;6.622;2022-09-17T02:25:41;14.02;;;2.45;;
14203;SDS011;7185;51.854;6.622;2022-09-17T02:28:21;18.83;;;2.85;;
14203;SDS011;7185;51.854;6.622;2022-09-17T02:30:53;11.43;;;1.58;;
14203;SDS011;7185;51.854;6.622;2022-09-17T02:33:46;21.77;;;2.22;;
14203;SDS011;7185;51.854;6.622;2022-09-17T02:36:25;10.73;;;2.47;;
14203;SDS011;7185;51.854;6.622;2022-09-17T02:39:46;12.02;;;1.95;;
14203;SDS011;7185;51.854;6.622;2022-09-17T02:42:34;12.20;;;1.85;;
14203;SDS011;7185;51.854;6.622;2022-09-17T02:45:22;10.63;;;1.95;;
14203;SDS011;7185;51.854;6.622;2022-09-17T02:48:19;10.88;;;2.33;;
14203;SDS011;7185;51.854;6.622;2022-09-17T02:51:18;10.63;;;2.30;;
14203;SDS011;7185;51.854;6.622;2022-09-17T02:54:24;11.38;;;2.20;;
14203;SDS011;7185;51.854;6.622;2022-09-17T03:00:25;6.07;;;1.73;;
14203;SDS011;7185;51.854;6.622;2022-09-17T03:03:18;13.02;;;1.60;;
14203;SDS011;7185;51.854;6.622;2022-09-17T03:06:20;10.02;;;2.10;;
14203;SDS011;7185;51.854;6.622;2022-09-17T03:09:03;9.90;;;1.88;;
14203;SDS011;7185;51.854;6.622;2022-09-17T03:11:43;11.73;;;2.25;;
14203;SDS011;7185;51.854;6.622;2022-09-17T03:14:35;12.80;;;1.88;;
14203;SDS011;7185;51.854;6.622;2022-09-17T03:17:13;12.95;;;2.00;;
14203;SDS011;7185;51.854;6.622;2022-09-17T03:19:51;11.15;;;1.75;;
14203;SDS011;7185;51.854;6.622;2022-09-17T03:22:36;6.28;;;1.70;;
14203;SDS011;7185;51.854;6.622;2022-09-17T03:25:19;12.13;;;2.03;;
14203;SDS011;7185;51.854;6.622;2022-09-17T03:33:49;8.90;;;1.88;;
14203;SDS011;7185;51.854;6.622;2022-09-17T03:37:01;7.60;;;1.35;;
14203;SDS011;7185;51.854;6.622;2022-09-17T03:40:06;10.88;;;2.13;;
14203;SDS011;7185;51.854;6.622;2022-09-17T03:42:42;8.98;;;1.80;;
14203;SDS011;7185;51.854;6.622;2022-09-17T03:45:43;5.13;;;1.48;;
14203;SDS011;7185;51.854;6.622;2022-09-17T03:51:51;9.65;;;1.67;;
14203;SDS011;7185;51.854;6.622;2022-09-17T03:54:40;5.28;;;1.45;;
14203;SDS011;7185;51.854;6.622;2022-09-17T03:57:53;9.88;;;1.63;;
14203;SDS011;7185;51.854;6.622;2022-09-17T04:05:45;9.05;;;1.75;;
14203;SDS011;7185;51.854;6.622;2022-09-17T04:09:04;5.78;;;1.40;;
14203;SDS011;7185;51.854;6.622;2022-09-17T04:14:40;10.77;;;1.70;;
14203;SDS011;7185;51.854;6.622;2022-09-17T04:17:14;5.22;;;1.40;;
14203;SDS011;7185;51.854;6.622;2022-09-17T04:19:50;6.13;;;1.08;;
14203;SDS011;7185;51.854;6.622;2022-09-17T04:25:17;5.70;;;1.25;;
14203;SDS011;7185;51.854;6.622;2022-09-17T04:27:52;6.57;;;0.95;;
14203;SDS011;7185;51.854;6.622;2022-09-17T04:31:11;8.77;;;1.20;;
14203;SDS011;7185;51.854;6.622;2022-09-17T04:33:43;5.80;;;1.20;;
14203;SDS011;7185;51.854;6.622;2022-09-17T04:36:20;7.57;;;1.70;;
14203;SDS011;7185;51.854;6.622;2022-09-17T04:38:59;10.87;;;1.97;;
14203;SDS011;7185;51.854;6.622;2022-09-17T04:44:59;7.97;;;1.63;;
14203;SDS011;7185;51.854;6.622;2022-09-17T04:47:46;7.85;;;1.70;;
14203;SDS011;7185;51.854;6.622;2022-09-17T05:13:44;5.55;;;1.02;;
14203;SDS011;7185;51.854;6.622;2022-09-17T05:19:23;6.65;;;1.38;;
14203;SDS011;7185;51.854;6.622;2022-09-17T05:22:23;7.57;;;1.52;;
14203;SDS011;7185;51.854;6.622;2022-09-17T05:25:32;8.85;;;1.30;;
14203;SDS011;7185;51.854;6.622;2022-09-17T05:28:37;7.45;;;1.80;;
14203;SDS011;7185;51.854;6.622;2022-09-17T05:31:23;11.18;;;1.80;;
14203;SDS011;7185;51.854;6.622;2022-09-17T05:34:27;11.48;;;2.60;;
14203;SDS011;7185;51.854;6.622;2022-09-17T05:37:17;7.25;;;1.95;;
14203;SDS011;7185;51.854;6.622;2022-09-17T05:43:23;12.07;;;1.90;;
14203;SDS011;7185;51.854;6.622;2022-09-17T05:46:04;8.27;;;1.60;;
14203;SDS011;7185;51.854;6.622;2022-09-17T05:48:44;9.88;;;1.60;;
14203;SDS011;7185;51.854;6.622;2022-09-17T06:13:16;7.30;;;1.85;;
14203;SDS011;7185;51.854;6.622;2022-09-17T06:46:51;6.15;;;1.60;;
14203;SDS011;7185;51.854;6.622;2022-09-17T06:49:23;7.78;;;1.35;;
14203;SDS011;7185;51.854;6.622;2022-09-17T06:52:10;8.10;;;1.45;;
14203;SDS011;7185;51.854;6.622;2022-09-17T06:55:07;10.13;;;2.22;;
14203;SDS011;7185;51.854;6.622;2022-09-17T06:57:44;8.23;;;1.55;;
14203;SDS011;7185;51.854;6.622;2022-09-17T07:00:30;10.23;;;1.80;;
14203;SDS011;7185;51.854;6.622;2022-09-17T07:03:04;5.70;;;1.13;;
14203;SDS011;7185;51.854;6.622;2022-09-17T07:05:36;7.05;;;1.52;;
14203;SDS011;7185;51.854;6.622;2022-09-17T07:08:11;6.22;;;1.55;;
14203;SDS011;7185;51.854;6.622;2022-09-17T07:44:27;9.23;;;1.48;;
14203;SDS011;7185;51.854;6.622;2022-09-17T07:47:08;7.15;;;1.45;;
14203;SDS011;7185;51.854;6.622;2022-09-17T07:49:39;5.97;;;1.20;;
14203;SDS011;7185;51.854;6.622;2022-09-17T07:52:11;9.35;;;1.83;;
14203;SDS011;7185;51.854;6.622;2022-09-17T07:54:56;6.60;;;1.50;;
14203;SDS011;7185;51.854;6.622;2022-09-17T07:57:28;6.22;;;1.50;;
14203;SDS011;7185;51.854;6.622;2022-09-17T08:00:07;5.53;;;1.10;;
14203;SDS011;7185;51.854;6.622;2022-09-17T08:08:56;7.13;;;1.10;;
14203;SDS011;7185;51.854;6.622;2022-09-17T08:12:11;6.03;;;1.15;;
14203;SDS011;7185;51.854;6.622;2022-09-17T08:15:27;6.43;;;1.13;;
14203;SDS011;7185;51.854;6.622;2022-09-17T08:18:04;4.57;;;1.52;;
14203;SDS011;7185;51.854;6.622;2022-09-17T08:23:47;5.45;;;1.20;;
14203;SDS011;7185;51.854;6.622;2022-09-17T08:26:23;8.60;;;1.05;;
14203;SDS011;7185;51.854;6.622;2022-09-17T08:28:55;3.08;;;1.10;;
14203;SDS011;7185;51.854;6.622;2022-09-17T08:31:29;5.47;;;0.80;;
14203;SDS011;7185;51.854;6.622;2022-09-17T08:36:45;6.10;;;1.02;;
14203;SDS011;7185;51.854;6.622;2022-09-17T08:40:30;5.50;;;0.93;;
14203;SDS011;7185;51.854;6.622;2022-09-17T08:45:33;4.10;;;0.77;;
14203;SDS011;7185;51.854;6.622;2022-09-17T08:48:09;6.53;;;0.88;;
14203;SDS011;7185;51.854;6.622;2022-09-17T08:50:49;4.30;;;1.10;;
14203;SDS011;7185;51.854;6.622;2022-09-17T08:53:52;4.78;;;0.60;;
14203;SDS011;7185;51.854;6.622;2022-09-17T08:56:46;11.73;;;1.80;;
14203;SDS011;7185;51.854;6.622;2022-09-17T08:59:56;6.45;;;1.15;;
14203;SDS011;7185;51.854;6.622;2022-09-17T09:03:52;6.07;;;0.90;;
14203;SDS011;7185;51.854;6.622;2022-09-17T09:09:34;3.95;;;0.90;;
14203;SDS011;7185;51.854;6.622;2022-09-17T09:12:27;4.03;;;0.93;;
14203;SDS011;7185;51.854;6.622;2022-09-17T09:15:39;3.67;;;0.85;;
14203;SDS011;7185;51.854;6.622;2022-09-17T09:18:30;3.03;;;1.02;;
14203;SDS011;7185;51.854;6.622;2022-09-17T09:21:20;3.45;;;1.00;;
14203;SDS011;7185;51.854;6.622;2022-09-17T09:24:13;1.58;;;0.60;;
14203;SDS011;7185;51.854;6.622;2022-09-17T09:29:34;4.03;;;0.68;;
14203;SDS011;7185;51.854;6.622;2022-09-17T09:32:16;1.90;;;0.75;;
14203;SDS011;7185;51.854;6.622;2022-09-17T09:34:55;5.90;;;1.30;;
14203;SDS011;7185;51.854;6.622;2022-09-17T09:37:31;5.50;;;0.90;;
14203;SDS011;7185;51.854;6.622;2022-09-17T09:40:21;8.43;;;1.10;;
14203;SDS011;7185;51.854;6.622;2022-09-17T09:43:02;3.67;;;0.88;;
14203;SDS011;7185;51.854;6.622;2022-09-17T09:45:53;6.18;;;1.00;;
14203;SDS011;7185;51.854;6.622;2022-09-17T09:48:50;5.65;;;0.93;;
14203;SDS011;7185;51.854;6.622;2022-09-17T09:51:53;4.22;;;0.70;;
14203;SDS011;7185;51.854;6.622;2022-09-17T09:54:38;4.70;;;0.52;;
14203;SDS011;7185;51.854;6.622;2022-09-17T09:57:23;2.40;;;0.65;;
14203;SDS011;7185;51.854;6.622;2022-09-17T10:00:27;3.85;;;0.82;;
14203;SDS011;7185;51.854;6.622;2022-09-17T10:03:01;2.88;;;1.02;;
14203;SDS011;7185;51.854;6.622;2022-09-17T10:05:40;4.13;;;0.73;;
14203;SDS011;7185;51.854;6.622;2022-09-17T10:08:23;7.35;;;0.98;;
14203;SDS011;7185;51.854;6.622;2022-09-17T10:10:57;2.78;;;0.47;;
14203;SDS011;7185;51.854;6.622;2022-09-17T10:13:32;2.70;;;0.60;;
14203;SDS011;7185;51.854;6.622;2022-09-17T10:16:16;3.80;;;0.70;;
14203;SDS011;7185;51.854;6.622;2022-09-17T10:18:55;5.25;;;0.65;;
14203;SDS011;7185;51.854;6.622;2022-09-17T10:21:45;3.38;;;0.82;;
14203;SDS011;7185;51.854;6.622;2022-09-17T10:24:20;4.15;;;0.77;;
14203;SDS011;7185;51.854;6.622;2022-09-17T10:26:59;5.25;;;0.75;;
14203;SDS011;7185;51.854;6.622;2022-09-17T10:29:33;5.38;;;0.95;;
14203;SDS011;7185;51.854;6.622;2022-09-17T10:32:12;4.40;;;1.00;;
14203;SDS011;7185;51.854;6.622;2022-09-17T10:35:00;2.97;;;0.68;;
14203;SDS011;7185;51.854;6.622;2022-09-17T10:37:41;2.92;;;0.80;;
14203;SDS011;7185;51.854;6.622;2022-09-17T10:43:20;2.97;;;0.77;;
14203;SDS011;7185;51.854;6.622;2022-09-17T10:46:03;2.25;;;0.73;;
14203;SDS011;7185;51.854;6.622;2022-09-17T10:48:41;3.45;;;1.02;;
14203;SDS011;7185;51.854;6.622;2022-09-17T10:51:21;4.68;;;0.90;;
14203;SDS011;7185;51.854;6.622;2022-09-17T10:53:58;2.67;;;0.55;;
14203;SDS011;7185;51.854;6.622;2022-09-17T10:56:45;2.90;;;0.90;;
14203;SDS011;7185;51.854;6.622;2022-09-17T10:59:41;3.92;;;0.90;;
14203;SDS011;7185;51.854;6.622;2022-09-17T11:05:54;5.38;;;0.82;;
14203;SDS011;7185;51.854;6.622;2022-09-17T11:08:56;3.83;;;0.80;;
14203;SDS011;7185;51.854;6.622;2022-09-17T11:11:59;3.37;;;0.73;;
14203;SDS011;7185;51.854;6.622;2022-09-17T11:14:50;4.00;;;0.80;;
14203;SDS011;7185;51.854;6.622;2022-09-17T11:17:38;4.13;;;0.95;;
14203;SDS011;7185;51.854;6.622;2022-09-17T11:20:21;2.83;;;0.60;;
14203;SDS011;7185;51.854;6.622;2022-09-17T11:23:07;1.98;;;0.55;;
14203;SDS011;7185;51.854;6.622;2022-09-17T11:25:55;2.90;;;0.60;;
14203;SDS011;7185;51.854;6.622;2022-09-17T11:28:35;1.52;;;0.50;;
14203;SDS011;7185;51.854;6.622;2022-09-17T11:31:20;3.83;;;0.50;;
14203;SDS011;7185;51.854;6.622;2022-09-17T11:34:03;1.55;;;0.50;;
14203;SDS011;7185;51.854;6.622;2022-09-17T11:36:53;2.35;;;0.50;;
14203;SDS011;7185;51.854;6.622;2022-09-17T11:39:32;2.65;;;0.40;;
14203;SDS011;7185;51.854;6.622;2022-09-17T11:42:11;1.83;;;0.60;;
14203;SDS011;7185;51.854;6.622;2022-09-17T11:44:49;2.88;;;0.57;;
14203;SDS011;7185;51.854;6.622;2022-09-17T11:47:29;3.70;;;0.70;;
14203;SDS011;7185;51.854;6.622;2022-09-17T11:50:13;1.85;;;0.73;;
14203;SDS011;7185;51.854;6.622;2022-09-17T11:53:00;3.58;;;0.60;;
14203;SDS011;7185;51.854;6.622;2022-09-17T11:55:41;4.53;;;0.60;;
14203;SDS011;7185;51.854;6.622;2022-09-17T11:58:19;3.78;;;1.00;;
14203;SDS011;7185;51.854;6.622;2022-09-17T12:01:03;5.05;;;0.73;;
14203;SDS011;7185;51.854;6.622;2022-09-17T12:03:47;1.58;;;0.60;;
14203;SDS011;7185;51.854;6.622;2022-09-17T12:06:39;3.40;;;0.75;;
14203;SDS011;7185;51.854;6.622;2022-09-17T12:09:18;2.45;;;0.65;;
14203;SDS011;7185;51.854;6.622;2022-09-17T12:11:56;3.50;;;0.93;;
14203;SDS011;7185;51.854;6.622;2022-09-17T12:14:35;3.63;;;0.73;;
14203;SDS011;7185;51.854;6.622;2022-09-17T12:17:19;3.00;;;0.70;;
14203;SDS011;7185;51.854;6.622;2022-09-17T12:19:55;2.80;;;0.68;;
14203;SDS011;7185;51.854;6.622;2022-09-17T12:22:33;2.50;;;0.50;;
14203;SDS011;7185;51.854;6.622;2022-09-17T12:27:45;3.72;;;0.90;;
14203;SDS011;7185;51.854;6.622;2022-09-17T12:30:25;4.97;;;0.80;;
14203;SDS011;7185;51.854;6.622;2022-09-17T12:33:07;5.88;;;1.08;;
14203;SDS011;7185;51.854;6.622;2022-09-17T12:38:52;3.92;;;0.90;;
14203;SDS011;7185;51.854;6.622;2022-09-17T12:44:21;3.05;;;0.90;;
14203;SDS011;7185;51.854;6.622;2022-09-17T12:47:16;4.05;;;0.73;;
14203;SDS011;7185;51.854;6.622;2022-09-17T12:50:07;4.93;;;1.17;;
14203;SDS011;7185;51.854;6.622;2022-09-17T12:53:02;5.55;;;1.00;;
14203;SDS011;7185;51.854;6.622;2022-09-17T12:55:47;4.65;;;0.98;;
14203;SDS011;7185;51.854;6.622;2022-09-17T12:58:36;3.38;;;0.88;;
14203;SDS011;7185;51.854;6.622;2022-09-17T13:01:18;3.65;;;1.17;;
14203;SDS011;7185;51.854;6.622;2022-09-17T13:03:54;4.38;;;0.80;;
14203;SDS011;7185;51.854;6.622;2022-09-17T13:09:49;6.97;;;0.90;;
14203;SDS011;7185;51.854;6.622;2022-09-17T13:12:32;1.98;;;0.60;;
14203;SDS011;7185;51.854;6.622;2022-09-17T13:18:11;3.30;;;0.70;;
14203;SDS011;7185;51.854;6.622;2022-09-17T13:20:53;5.55;;;0.95;;
14203;SDS011;7185;51.854;6.622;2022-09-17T13:23:33;3.42;;;0.77;;
14203;SDS011;7185;51.854;6.622;2022-09-17T13:26:11;1.73;;;0.65;;
14203;SDS011;7185;51.854;6.622;2022-09-17T13:28:48;1.65;;;0.47;;
14203;SDS011;7185;51.854;6.622;2022-09-17T13:31:22;3.80;;;0.52;;
14203;SDS011;7185;51.854;6.622;2022-09-17T13:34:28;5.05;;;1.00;;
14203;SDS011;7185;51.854;6.622;2022-09-17T13:37:05;2.05;;;0.75;;
14203;SDS011;7185;51.854;6.622;2022-09-17T13:39:49;1.48;;;0.63;;
14203;SDS011;7185;51.854;6.622;2022-09-17T13:42:22;5.57;;;0.73;;
14203;SDS011;7185;51.854;6.622;2022-09-17T13:45:03;2.30;;;0.80;;
14203;SDS011;7185;51.854;6.622;2022-09-17T13:47:37;3.38;;;1.05;;
14203;SDS011;7185;51.854;6.622;2022-09-17T13:50:12;5.10;;;0.93;;
14203;SDS011;7185;51.854;6.622;2022-09-17T13:52:56;6.82;;;1.20;;
14203;SDS011;7185;51.854;6.622;2022-09-17T13:55:30;3.38;;;1.00;;
14203;SDS011;7185;51.854;6.622;2022-09-17T13:58:05;2.75;;;1.10;;
14203;SDS011;7185;51.854;6.622;2022-09-17T14:06:47;4.13;;;0.93;;
14203;SDS011;7185;51.854;6.622;2022-09-17T14:15:32;2.55;;;0.60;;
14203;SDS011;7185;51.854;6.622;2022-09-17T14:21:13;6.07;;;0.88;;
14203;SDS011;7185;51.854;6.622;2022-09-17T14:23:57;2.15;;;0.63;;
14203;SDS011;7185;51.854;6.622;2022-09-17T14:29:46;3.25;;;1.05;;
14203;SDS011;7185;51.854;6.622;2022-09-17T14:32:41;5.32;;;1.13;;
14203;SDS011;7185;51.854;6.622;2022-09-17T14:35:21;3.65;;;0.90;;
14203;SDS011;7185;51.854;6.622;2022-09-17T14:37:59;5.00;;;1.10;;
14203;SDS011;7185;51.854;6.622;2022-09-17T14:40:35;5.30;;;0.85;;
14203;SDS011;7185;51.854;6.622;2022-09-17T14:43:15;3.83;;;1.30;;
14203;SDS011;7185;51.854;6.622;2022-09-17T14:45:51;5.32;;;1.00;;
14203;SDS011;7185;51.854;6.622;2022-09-17T14:48:29;4.78;;;1.02;;
14203;SDS011;7185;51.854;6.622;2022-09-17T14:51:17;7.93;;;1.30;;
14203;SDS011;7185;51.854;6.622;2022-09-17T14:56:56;3.85;;;0.70;;
14203;SDS011;7185;51.854;6.622;2022-09-17T14:59:38;2.35;;;0.75;;
14203;SDS011;7185;51.854;6.622;2022-09-17T15:05:17;5.60;;;1.48;;
14203;SDS011;7185;51.854;6.622;2022-09-17T15:08:03;4.68;;;1.83;;
14203;SDS011;7185;51.854;6.622;2022-09-17T15:10:36;4.78;;;0.90;;
14203;SDS011;7185;51.854;6.622;2022-09-17T15:13:17;4.50;;;0.85;;
14203;SDS011;7185;51.854;6.622;2022-09-17T15:15:52;5.07;;;1.17;;
14203;SDS011;7185;51.854;6.622;2022-09-17T15:18:32;9.23;;;1.10;;
14203;SDS011;7185;51.854;6.622;2022-09-17T15:21:14;5.82;;;1.67;;
14203;SDS011;7185;51.854;6.622;2022-09-17T15:23:51;4.47;;;1.13;;
14203;SDS011;7185;51.854;6.622;2022-09-17T15:26:27;4.05;;;0.80;;
14203;SDS011;7185;51.854;6.622;2022-09-17T15:29:09;6.32;;;1.00;;
14203;SDS011;7185;51.854;6.622;2022-09-17T15:31:42;4.85;;;0.80;;
14203;SDS011;7185;51.854;6.622;2022-09-17T15:34:14;6.00;;;0.95;;
14203;SDS011;7185;51.854;6.622;2022-09-17T15:39:39;5.15;;;1.27;;
14203;SDS011;7185;51.854;6.622;2022-09-17T15:42:16;6.20;;;1.65;;
14203;SDS011;7185;51.854;6.622;2022-09-17T15:44:51;5.47;;;1.10;;
14203;SDS011;7185;51.854;6.622;2022-09-17T15:50:23;4.78;;;1.10;;
14203;SDS011;7185;51.854;6.622;2022-09-17T15:53:09;6.97;;;1.13;;
14203;SDS011;7185;51.854;6.622;2022-09-17T15:55:43;6.75;;;1.27;;
14203;SDS011;7185;51.854;6.622;2022-09-17T15:58:19;8.10;;;1.42;;
14203;SDS011;7185;51.854;6.622;2022-09-17T16:04:06;9.23;;;1.30;;
14203;SDS011;7185;51.854;6.622;2022-09-17T16:06:56;3.92;;;1.23;;
14203;SDS011;7185;51.854;6.622;2022-09-17T16:09:39;6.40;;;1.13;;
14203;SDS011;7185;51.854;6.622;2022-09-17T16:12:13;4.75;;;1.40;;
14203;SDS011;7185;51.854;6.622;2022-09-17T16:14:47;3.67;;;0.93;;
14203;SDS011;7185;51.854;6.622;2022-09-17T16:17:22;4.72;;;1.02;;
14203;SDS011;7185;51.854;6.622;2022-09-17T16:20:13;5.20;;;1.20;;
14203;SDS011;7185;51.854;6.622;2022-09-17T16:23:02;4.82;;;2.03;;
14203;SDS011;7185;51.854;6.622;2022-09-17T16:25:34;4.97;;;1.13;;
14203;SDS011;7185;51.854;6.622;2022-09-17T16:28:09;7.00;;;1.50;;
14203;SDS011;7185;51.854;6.622;2022-09-17T16:30:44;5.65;;;1.27;;
14203;SDS011;7185;51.854;6.622;2022-09-17T16:33:17;7.88;;;1.70;;
14203;SDS011;7185;51.854;6.622;2022-09-17T16:35:50;7.93;;;1.55;;
14203;SDS011;7185;51.854;6.622;2022-09-17T16:38:22;7.72;;;1.25;;
14203;SDS011;7185;51.854;6.622;2022-09-17T16:40:54;4.65;;;1.15;;
14203;SDS011;7185;51.854;6.622;2022-09-17T16:43:25;6.40;;;1.10;;
14203;SDS011;7185;51.854;6.622;2022-09-17T16:45:58;11.07;;;1.55;;
14203;SDS011;7185;51.854;6.622;2022-09-17T16:48:31;7.07;;;0.95;;
14203;SDS011;7185;51.854;6.622;2022-09-17T16:51:08;6.47;;;1.38;;
14203;SDS011;7185;51.854;6.622;2022-09-17T16:53:41;4.00;;;1.00;;
14203;SDS011;7185;51.854;6.622;2022-09-17T16:56:13;5.63;;;1.10;;
14203;SDS011;7185;51.854;6.622;2022-09-17T16:58:45;8.00;;;2.08;;
14203;SDS011;7185;51.854;6.622;2022-09-17T17:01:17;10.15;;;1.85;;
14203;SDS011;7185;51.854;6.622;2022-09-17T17:03:49;4.25;;;1.42;;
14203;SDS011;7185;51.854;6.622;2022-09-17T17:06:23;9.25;;;1.23;;
14203;SDS011;7185;51.854;6.622;2022-09-17T17:08:56;7.97;;;1.70;;
14203;SDS011;7185;51.854;6.622;2022-09-17T17:11:30;8.93;;;1.48;;
14203;SDS011;7185;51.854;6.622;2022-09-17T17:14:01;4.35;;;1.20;;
14203;SDS011;7185;51.854;6.622;2022-09-17T17:16:34;9.30;;;1.98;;
14203;SDS011;7185;51.854;6.622;2022-09-17T17:19:06;6.47;;;2.05;;
14203;SDS011;7185;51.854;6.622;2022-09-17T17:21:39;8.57;;;1.52;;
14203;SDS011;7185;51.854;6.622;2022-09-17T17:24:11;8.48;;;1.50;;
14203;SDS011;7185;51.854;6.622;2022-09-17T17:26:44;6.40;;;1.58;;
14203;SDS011;7185;51.854;6.622;2022-09-17T17:29:17;7.15;;;1.40;;
14203;SDS011;7185;51.854;6.622;2022-09-17T17:31:48;8.02;;;2.47;;
14203;SDS011;7185;51.854;6.622;2022-09-17T17:34:20;9.40;;;1.77;;
14203;SDS011;7185;51.854;6.622;2022-09-17T17:36:55;10.15;;;1.90;;
14203;SDS011;7185;51.854;6.622;2022-09-17T17:39:28;7.43;;;1.92;;
14203;SDS011;7185;51.854;6.622;2022-09-17T17:42:00;7.65;;;1.30;;
14203;SDS011;7185;51.854;6.622;2022-09-17T17:44:32;3.65;;;1.30;;
14203;SDS011;7185;51.854;6.622;2022-09-17T17:47:03;9.52;;;1.83;;
14203;SDS011;7185;51.854;6.622;2022-09-17T17:49:35;7.55;;;1.85;;
14203;SDS011;7185;51.854;6.622;2022-09-17T17:52:08;11.73;;;1.85;;
14203;SDS011;7185;51.854;6.622;2022-09-17T17:54:40;9.80;;;2.00;;
14203;SDS011;7185;51.854;6.622;2022-09-17T17:57:11;8.10;;;1.35;;
14203;SDS011;7185;51.854;6.622;2022-09-17T17:59:46;6.32;;;1.58;;
14203;SDS011;7185;51.854;6.622;2022-09-17T18:02:18;8.18;;;1.40;;
14203;SDS011;7185;51.854;6.622;2022-09-17T18:04:49;7.93;;;1.40;;
14203;SDS011;7185;51.854;6.622;2022-09-17T18:07:23;7.60;;;1.70;;
14203;SDS011;7185;51.854;6.622;2022-09-17T18:09:55;5.43;;;1.35;;
14203;SDS011;7185;51.854;6.622;2022-09-17T18:12:26;13.27;;;1.50;;
14203;SDS011;7185;51.854;6.622;2022-09-17T18:14:58;8.65;;;1.98;;
14203;SDS011;7185;51.854;6.622;2022-09-17T18:17:30;9.63;;;2.08;;
14203;SDS011;7185;51.854;6.622;2022-09-17T18:20:02;11.07;;;1.95;;
14203;SDS011;7185;51.854;6.622;2022-09-17T18:22:35;8.07;;;1.70;;
14203;SDS011;7185;51.854;6.622;2022-09-17T18:25:07;5.88;;;1.80;;
14203;SDS011;7185;51.854;6.622;2022-09-17T18:27:39;6.75;;;1.38;;
14203;SDS011;7185;51.854;6.622;2022-09-17T18:30:11;5.05;;;1.05;;
14203;SDS011;7185;51.854;6.622;2022-09-17T18:32:46;5.90;;;1.58;;
14203;SDS011;7185;51.854;6.622;2022-09-17T18:35:17;9.93;;;1.70;;
14203;SDS011;7185;51.854;6.622;2022-09-17T18:37:50;8.73;;;1.17;;
14203;SDS011;7185;51.854;6.622;2022-09-17T18:40:22;10.02;;;1.77;;
14203;SDS011;7185;51.854;6.622;2022-09-17T18:42:54;7.03;;;1.30;;
14203;SDS011;7185;51.854;6.622;2022-09-17T18:45:25;6.57;;;1.48;;
14203;SDS011;7185;51.854;6.622;2022-09-17T18:47:57;8.68;;;1.20;;
14203;SDS011;7185;51.854;6.622;2022-09-17T18:50:30;8.45;;;1.48;;
14203;SDS011;7185;51.854;6.622;2022-09-17T18:53:03;9.75;;;1.50;;
14203;SDS011;7185;51.854;6.622;2022-09-17T18:55:44;5.22;;;1.30;;
14203;SDS011;7185;51.854;6.622;2022-09-17T18:58:16;9.85;;;1.83;;
14203;SDS011;7185;51.854;6.622;2022-09-17T19:00:47;11.73;;;1.70;;
14203;SDS011;7185;51.854;6.622;2022-09-17T19:03:19;7.15;;;1.83;;
14203;SDS011;7185;51.854;6.622;2022-09-17T19:05:50;8.25;;;1.55;;
14203;SDS011;7185;51.854;6.622;2022-09-17T19:08:23;5.22;;;1.23;;
14203;SDS011;7185;51.854;6.622;2022-09-17T19:10:55;8.00;;;1.45;;
14203;SDS011;7185;51.854;6.622;2022-09-17T19:13:31;9.65;;;1.50;;
14203;SDS011;7185;51.854;6.622;2022-09-17T19:16:04;12.05;;;1.83;;
14203;SDS011;7185;51.854;6.622;2022-09-17T19:18:36;9.18;;;2.22;;
14203;SDS011;7185;51.854;6.622;2022-09-17T19:21:09;10.88;;;1.73;;
14203;SDS011;7185;51.854;6.622;2022-09-17T19:23:43;7.32;;;1.48;;
14203;SDS011;7185;51.854;6.622;2022-09-17T19:26:17;6.78;;;1.38;;
14203;SDS011;7185;51.854;6.622;2022-09-17T19:28:50;12.45;;;2.50;;
14203;SDS011;7185;51.854;6.622;2022-09-17T19:31:22;7.82;;;1.52;;
14203;SDS011;7185;51.854;6.622;2022-09-17T19:33:55;8.02;;;1.20;;
14203;SDS011;7185;51.854;6.622;2022-09-17T19:36:28;10.95;;;2.00;;
14203;SDS011;7185;51.854;6.622;2022-09-17T19:39:01;6.32;;;1.42;;
14203;SDS011;7185;51.854;6.622;2022-09-17T19:41:33;9.70;;;1.65;;
14203;SDS011;7185;51.854;6.622;2022-09-17T19:44:05;8.05;;;1.50;;
14203;SDS011;7185;51.854;6.622;2022-09-17T19:46:36;10.93;;;2.20;;
14203;SDS011;7185;51.854;6.622;2022-09-17T19:49:08;7.22;;;1.33;;
14203;SDS011;7185;51.854;6.622;2022-09-17T19:51:40;5.70;;;1.50;;
14203;SDS011;7185;51.854;6.622;2022-09-17T19:54:16;6.50;;;1.70;;
14203;SDS011;7185;51.854;6.622;2022-09-17T19:56:47;9.88;;;1.92;;
14203;SDS011;7185;51.854;6.622;2022-09-17T19:59:19;7.70;;;1.80;;
14203;SDS011;7185;51.854;6.622;2022-09-17T20:01:50;8.65;;;1.55;;
14203;SDS011;7185;51.854;6.622;2022-09-17T20:04:22;9.48;;;2.25;;
14203;SDS011;7185;51.854;6.622;2022-09-17T20:06:53;9.98;;;1.50;;
14203;SDS011;7185;51.854;6.622;2022-09-17T20:09:29;6.40;;;1.50;;
14203;SDS011;7185;51.854;6.622;2022-09-17T20:12:02;7.88;;;1.73;;
14203;SDS011;7185;51.854;6.622;2022-09-17T20:14:34;6.65;;;1.45;;
14203;SDS011;7185;51.854;6.622;2022-09-17T20:17:06;12.13;;;1.65;;
14203;SDS011;7185;51.854;6.622;2022-09-17T20:19:37;5.45;;;1.13;;
14203;SDS011;7185;51.854;6.622;2022-09-17T20:22:10;5.40;;;1.38;;
14203;SDS011;7185;51.854;6.622;2022-09-17T20:24:43;5.82;;;1.30;;
14203;SDS011;7185;51.854;6.622;2022-09-17T20:27:15;5.63;;;1.33;;
14203;SDS011;7185;51.854;6.622;2022-09-17T20:29:47;4.63;;;1.40;;
14203;SDS011;7185;51.854;6.622;2022-09-17T20:32:18;9.90;;;1.90;;
14203;SDS011;7185;51.854;6.622;2022-09-17T20:34:50;6.28;;;1.48;;
14203;SDS011;7185;51.854;6.622;2022-09-17T20:37:21;6.57;;;1.50;;
14203;SDS011;7185;51.854;6.622;2022-09-17T20:39:54;7.03;;;1.70;;
14203;SDS011;7185;51.854;6.622;2022-09-17T20:42:26;8.70;;;1.48;;
14203;SDS011;7185;51.854;6.622;2022-09-17T20:44:57;7.05;;;1.38;;
14203;SDS011;7185;51.854;6.622;2022-09-17T20:47:29;7.15;;;1.45;;
14203;SDS011;7185;51.854;6.622;2022-09-17T20:50:01;3.88;;;1.30;;